Springfield, MO (65804)

7:35 AM CST on February 06, 2016 (GMT -0600)
Southeast Springfield | | Change Station
CLOSE
Current Station
Personal Weather Station
Location: Springfield, MO
Elevation: 1316 ft
Nearby Weather Stations

Elev 1316 ft 37.16 °N, 93.25 °W | Updated 3 minutes ago

Clear
Clear
22.6 °F
Feels Like 23 °F
N
0.0
Wind Variable Wind from SE

Today
High -- | Low -- °F
--% Chance of Precip.
Yesterday
High -- | Low -- °F
Precip. -- in
Pressure 30.32 in
Visibility 10.0 miles
Clouds Clear
Windchill 23 °F
Dew Point 17 °F
Humidity 79%
Rainfall 0.00 in
Snow Depth Not available.
7:11 AM 5:42 PM
Waning Crescent, 5% visible
METAR KSGF 061252Z 18007KT 10SM CLR M03/M08 A3028 RMK AO2 SLP266 T10331083
Pressure 30.32 in
Visibility 10.0 miles
Clouds Clear
Windchill 23 °F
Dew Point 17 °F
Humidity 79%
Rainfall 0.00 in
Snow Depth Not available.
7:11 AM 5:42 PM
Waning Crescent, 5% visible
METAR KSGF 061252Z 18007KT 10SM CLR M03/M08 A3028 RMK AO2 SLP266 T10331083

10-Day Weather Forecast

Almanac

Astronomy

Feb. 06, 2016 Rise Set
Actual Time
Civil Twilight
Nautical Twilight
Astronomical Twilight
Moon
Length of Visible Light
Length of Day
Tomorrow will be .
, % of the Moon is Illuminated

Today's Extremes

State Highs State Lows

Community

WunderPhotos

Upload Photos

1,890,971 photos uploaded!

WunderBlog® & News

Nearby

Air Quality

  Air Quality AQ Index Pollutant
Not available.

Snow Depth

Station Depth Elevation

Earthquake Activity

City Distance Mag. Time & Date
Minimum magnitude displayed is 2.5.

Coastal Water Temperatures

Place Temperature

Stations

Nearby Weather Stations

Station Location Temp. Windchill Dew Point Humidity Wind Precip. Elev Updated Type
                   

Watches & Warnings

There are currently no watches in effect.